logo
Search for airport 
image banner adimage banner adimage banner ad
image banner ad

EHS039 - Harskamp

Located in , Netherlands

ICAO - , IATA -

Data provided by Airmate  

General information

Coordinates: N52°8'24" E5°44'59"
Elevation is 77 feet MSL.
 
View others Airports in Gelderland

Operational data

Special qualification required
Current time UTC:
Current local time:
Weather at : EHDL - Deelen ( 12 km )
METAR: EHDL 150755Z AUTO 22013KT 160V280 9999 SCT019 BKN023 BKN031 10/05 Q1008 WHT
View NOTAMs / SUP AIP / TFR affecting this airport [VIEW]
Communications frequencies: [VIEW]

Runways:

Airport contact information

Address: Netherlands

Satellite view of EHS039